Time;durP1;ratioP1;P1;durP2;ratioP2;P2;SDS_P1;SDS_P2;PMS_P1;PMS_P2;Temp;Humidity;BMP_temperature;BMP_pressure;BME280_temperature;BME280_humidity;BME280_pressure;Samples;Min_cycle;Max_cycle;Signal;HPM_P1;HPM_P2
2022/01/29 00:00:16;;;;;;;11.93;4.65;;;;;;;-0.95;83.27;100838.94;1714375;83;25653;-73
2022/01/29 00:02:44;;;;;;;18.10;5.03;;;;;;;-0.96;83.24;100838.62;1729445;82;26240;-73
2022/01/29 00:05:11;;;;;;;12.55;5.22;;;;;;;-0.98;83.27;100842.83;1729253;83;25638;-73
2022/01/29 00:07:41;;;;;;;14.87;5.30;;;;;;;-0.99;83.22;100850.52;1729441;83;25699;-73
2022/01/29 00:10:08;;;;;;;11.57;4.87;;;;;;;-1.00;83.10;100845.42;1714613;82;25727;-73
2022/01/29 00:12:34;;;;;;;14.50;4.83;;;;;;;-1.02;83.15;100847.45;1730488;82;25663;-73
2022/01/29 00:15:01;;;;;;;9.48;4.12;;;;;;;-1.04;83.21;100847.70;1730526;82;27471;-74
2022/01/29 00:17:27;;;;;;;11.55;4.62;;;;;;;-1.04;83.24;100848.20;1730393;82;25589;-73
2022/01/29 00:19:54;;;;;;;11.88;4.28;;;;;;;-1.04;83.19;100844.21;1730422;82;25671;-74
2022/01/29 00:22:21;;;;;;;9.20;3.67;;;;;;;-1.05;83.15;100846.59;1730540;82;25613;-74
2022/01/29 00:24:47;;;;;;;9.03;3.62;;;;;;;-1.07;83.25;100852.11;1730599;82;25278;-73
2022/01/29 00:27:14;;;;;;;10.40;4.22;;;;;;;-1.06;83.24;100854.25;1730358;82;27879;-72
2022/01/29 00:29:42;;;;;;;12.80;3.65;;;;;;;-1.06;83.26;100855.58;1730446;82;25732;-72
2022/01/29 00:32:11;;;;;;;10.78;3.72;;;;;;;-1.08;83.20;100859.77;1730496;82;25647;-73
2022/01/29 00:34:40;;;;;;;14.93;3.42;;;;;;;-1.08;83.20;100863.75;1730361;82;25797;-72
2022/01/29 00:37:08;;;;;;;12.13;3.47;;;;;;;-1.10;83.13;100865.82;1730744;82;25570;-72
2022/01/29 00:39:34;;;;;;;10.30;4.25;;;;;;;-1.10;83.11;100867.67;1730531;82;26982;-72
2022/01/29 00:42:01;;;;;;;16.65;7.17;;;;;;;-1.13;83.05;100867.05;1730285;82;25613;-73
2022/01/29 00:44:27;;;;;;;11.68;4.90;;;;;;;-1.14;83.17;100869.42;1730589;82;25658;-73
2022/01/29 00:46:54;;;;;;;12.33;5.10;;;;;;;-1.16;83.05;100863.53;1730649;82;25768;-73
2022/01/29 00:49:20;;;;;;;13.83;6.95;;;;;;;-1.17;83.15;100872.51;1730354;82;25470;-73
2022/01/29 00:51:46;;;;;;;9.18;4.10;;;;;;;-1.20;83.27;100862.31;1730664;82;27477;-74
2022/01/29 00:54:13;;;;;;;10.55;3.40;;;;;;;-1.21;83.35;100867.84;1730073;82;25600;-73
2022/01/29 00:56:40;;;;;;;8.58;2.85;;;;;;;-1.22;83.46;100859.07;1730337;82;26222;-72
2022/01/29 00:59:06;;;;;;;11.85;3.80;;;;;;;-1.21;83.49;100862.53;1730562;82;25685;-73
2022/01/29 01:01:33;;;;;;;9.88;3.67;;;;;;;-1.22;83.49;100854.28;1730495;82;25784;-73
2022/01/29 01:03:59;;;;;;;12.73;4.28;;;;;;;-1.23;83.49;100857.44;1730376;82;27307;-73
2022/01/29 01:06:25;;;;;;;9.73;3.47;;;;;;;-1.25;83.61;100854.72;1730614;82;25724;-73
2022/01/29 01:08:52;;;;;;;12.88;4.28;;;;;;;-1.24;83.65;100850.52;1730642;82;25602;-73
2022/01/29 01:11:19;;;;;;;15.23;4.83;;;;;;;-1.26;83.75;100848.60;1747979;80;25697;-73
2022/01/29 01:13:45;;;;;;;9.78;3.75;;;;;;;-1.26;83.89;100849.93;1760640;81;25430;-72
2022/01/29 01:16:11;;;;;;;15.25;6.05;;;;;;;-1.26;83.73;100851.75;1760574;81;27511;-72
2022/01/29 01:18:38;;;;;;;17.00;6.47;;;;;;;-1.27;83.77;100842.18;1760291;81;25785;-72
2022/01/29 01:21:04;;;;;;;19.73;6.58;;;;;;;-1.28;83.75;100849.31;1760632;81;25767;-72
2022/01/29 01:23:30;;;;;;;13.98;5.83;;;;;;;-1.32;83.73;100838.31;1760409;81;26305;-72
2022/01/29 01:25:58;;;;;;;10.82;5.22;;;;;;;-1.32;83.78;100846.28;1760467;81;25459;-73
2022/01/29 01:28:24;;;;;;;13.78;6.90;;;;;;;-1.33;83.79;100842.52;1760460;81;27318;-72
2022/01/29 01:30:51;;;;;;;21.00;6.90;;;;;;;-1.35;83.75;100844.05;1760579;81;25670;-73
2022/01/29 01:33:17;;;;;;;21.87;10.03;;;;;;;-1.37;83.92;100850.62;1760789;81;25698;-73
2022/01/29 01:35:50;;;;;;;27.02;12.18;;;;;;;-1.38;83.88;100852.96;1760762;81;25776;-73
2022/01/29 01:40:41;;;;;;;19.65;9.25;;;;;;;-1.41;84.13;100841.47;1760872;81;27163;-73
2022/01/29 01:43:08;;;;;;;13.53;6.17;;;;;;;-1.44;83.99;100841.91;1760803;81;25649;-73
2022/01/29 01:45:34;;;;;;;15.08;6.75;;;;;;;-1.47;84.11;100835.17;1760816;81;25638;-72
2022/01/29 01:48:06;;;;;;;10.78;5.00;;;;;;;-1.47;84.16;100838.34;1760718;81;25661;-72
2022/01/29 01:50:30;;;;;;;8.78;4.28;;;;;;;-1.49;84.24;100837.75;1760223;81;25643;-72
2022/01/29 01:53:03;;;;;;;11.35;5.78;;;;;;;-1.52;84.19;100841.11;1760816;81;27134;-73
2022/01/29 01:55:31;;;;;;;11.70;5.08;;;;;;;-1.53;84.20;100837.37;1760666;81;25724;-73
2022/01/29 01:57:59;;;;;;;10.35;5.15;;;;;;;-1.57;84.17;100830.86;1760671;81;25722;-73
2022/01/29 02:00:27;;;;;;;8.65;4.37;;;;;;;-1.58;84.09;100827.92;1760615;81;25591;-73
2022/01/29 02:02:54;;;;;;;11.63;5.00;;;;;;;-1.61;83.96;100819.06;1760815;81;25742;-73
2022/01/29 02:05:20;;;;;;;12.63;4.87;;;;;;;-1.63;84.27;100815.81;1746669;81;27294;-73
2022/01/29 02:07:48;;;;;;;15.75;5.70;;;;;;;-1.65;84.26;100823.16;1730416;82;25574;-73
2022/01/29 02:10:14;;;;;;;13.98;5.92;;;;;;;-1.68;84.44;100819.10;1730996;81;25625;-73
2022/01/29 02:12:54;;;;;;;9.75;5.83;;;;;;;-1.70;84.43;100828.59;1762707;81;25441;-73
2022/01/29 02:15:22;;;;;;;11.05;5.60;;;;;;;-1.73;84.50;100835.66;1762745;81;25587;-73
2022/01/29 02:17:49;;;;;;;13.68;6.22;;;;;;;-1.76;84.55;100836.08;1762603;81;27319;-73
2022/01/29 02:20:24;;;;;;;16.27;7.17;;;;;;;-1.78;84.54;100836.80;1762475;81;25628;-73
2022/01/29 02:22:51;;;;;;;15.38;8.38;;;;;;;-1.81;84.80;100831.92;1761165;81;25653;-73
2022/01/29 02:25:43;;;;;;;18.50;8.88;;;;;;;-1.82;84.99;100829.48;1762616;81;25669;-73
2022/01/29 02:28:14;;;;;;;18.90;8.43;;;;;;;-1.84;85.01;100831.54;1762634;81;25649;-72
2022/01/29 02:30:56;;;;;;;14.28;8.03;;;;;;;-1.86;85.02;100839.70;1762647;81;27270;-72
2022/01/29 02:33:19;;;;;;;15.55;7.95;;;;;;;-1.87;85.09;100836.77;1762036;81;26042;-73
2022/01/29 02:35:49;;;;;;;16.20;8.40;;;;;;;-1.89;85.23;100829.52;1762738;81;25422;-73
2022/01/29 02:38:18;;;;;;;;;;;;;;;-1.91;85.34;100828.44;1765190;81;26424;-73
2022/01/29 02:40:47;;;;;;;12.75;7.08;;;;;;;-1.91;85.62;100832.41;1762889;81;25752;-73
2022/01/29 02:43:27;;;;;;;17.90;7.28;;;;;;;-1.93;85.65;100823.83;1762366;81;27407;-73
2022/01/29 02:45:55;;;;;;;18.90;7.62;;;;;;;-1.94;85.62;100827.53;1762574;81;25688;-72
2022/01/29 02:48:23;;;;;;;19.05;7.60;;;;;;;-1.96;85.62;100824.77;1762534;81;25598;-72
2022/01/29 02:50:51;;;;;;;19.52;8.65;;;;;;;-1.97;85.68;100825.30;1762563;81;25694;-72
2022/01/29 02:53:18;;;;;;;17.95;9.48;;;;;;;-2.00;85.47;100825.72;1762597;81;25626;-72
2022/01/29 02:55:44;;;;;;;18.07;9.00;;;;;;;-1.99;85.70;100825.19;1762659;81;27320;-72
2022/01/29 02:58:11;;;;;;;22.65;9.55;;;;;;;-2.01;85.74;100826.76;1762498;81;25672;-72
2022/01/29 03:00:41;;;;;;;20.43;9.00;;;;;;;-2.04;86.02;100824.53;1762682;81;25542;-72
2022/01/29 03:03:07;;;;;;;;;;;;;;;-2.05;86.25;100823.41;1765229;81;25560;-73
2022/01/29 03:05:34;;;;;;;14.28;8.18;;;;;;;-2.05;86.28;100828.19;1762683;81;25594;-72
2022/01/29 03:08:00;;;;;;;17.12;8.38;;;;;;;-2.06;86.45;100831.85;1762617;81;27301;-72
2022/01/29 03:10:28;;;;;;;20.02;8.70;;;;;;;-2.06;86.35;100830.53;1736512;81;25780;-72
2022/01/29 03:12:55;;;;;;;19.17;8.45;;;;;;;-2.09;86.40;100827.00;1746224;81;25653;-72
2022/01/29 03:15:21;;;;;;;14.30;6.95;;;;;;;-2.09;86.66;100823.02;1745756;82;25624;-72
2022/01/29 03:17:48;;;;;;;13.93;6.58;;;;;;;-2.09;86.79;100821.70;1745724;82;25429;-72
2022/01/29 03:20:15;;;;;;;18.90;8.25;;;;;;;-2.10;86.60;100826.17;1737063;82;27333;-72
2022/01/29 03:22:41;;;;;;;16.80;7.33;;;;;;;-2.12;86.46;100824.24;1676823;85;25510;-72
2022/01/29 03:25:08;;;;;;;12.88;6.83;;;;;;;-2.11;86.51;100833.84;1653278;85;25641;-72
2022/01/29 03:27:34;;;;;;;14.58;7.15;;;;;;;-2.10;86.74;100829.34;1676848;85;25713;-72
2022/01/29 03:30:04;;;;;;;21.57;9.75;;;;;;;-2.12;86.87;100826.89;1676855;85;25643;-72
2022/01/29 03:32:30;;;;;;;;;;;;;;;-2.11;86.87;100817.09;1679393;85;27377;-72
2022/01/29 03:34:57;;;;;;;16.40;8.85;;;;;;;-2.11;87.02;100825.05;1720245;83;26059;-72
2022/01/29 03:37:23;;;;;;;17.42;7.92;;;;;;;-2.12;87.01;100832.72;1702006;84;25687;-72
2022/01/29 03:39:51;;;;;;;19.05;10.70;;;;;;;-2.13;87.08;100825.29;1720254;83;26255;-72
2022/01/29 03:42:18;;;;;;;19.98;10.28;;;;;;;-2.15;87.02;100810.61;1720330;83;25627;-72
2022/01/29 03:44:44;;;;;;;25.97;11.15;;;;;;;-2.14;86.96;100816.22;1720334;83;27888;-72
2022/01/29 03:47:11;;;;;;;29.20;10.48;;;;;;;-2.14;87.03;100820.20;1720186;83;25615;-72
2022/01/29 03:49:37;;;;;;;26.70;12.35;;;;;;;-2.15;87.14;100819.88;1720405;83;25672;-72
2022/01/29 03:52:04;;;;;;;22.22;10.30;;;;;;;-2.15;87.16;100832.61;1720408;83;25665;-72
2022/01/29 03:54:31;;;;;;;21.48;10.13;;;;;;;-2.16;87.06;100842.09;1720635;83;25730;-72
2022/01/29 03:56:57;;;;;;;19.10;11.15;;;;;;;-2.17;87.17;100841.30;1720588;83;27895;-72
2022/01/29 03:59:23;;;;;;;21.55;10.45;;;;;;;-2.18;87.35;100840.17;1720429;83;25680;-72
2022/01/29 04:01:50;;;;;;;18.10;9.50;;;;;;;-2.17;87.47;100848.44;1720607;83;25555;-72
2022/01/29 04:04:16;;;;;;;26.48;10.65;;;;;;;-2.17;87.60;100852.42;1720461;83;25815;-72
2022/01/29 04:06:43;;;;;;;17.32;10.18;;;;;;;-2.17;87.35;100855.07;1720731;83;25406;-72
2022/01/29 04:09:11;;;;;;;18.57;10.10;;;;;;;-2.18;87.42;100852.94;1720626;83;27452;-72
2022/01/29 04:11:39;;;;;;;26.87;11.03;;;;;;;-2.20;87.39;100849.66;1723715;82;25753;-72
2022/01/29 04:14:18;;;;;;;18.35;10.55;;;;;;;-2.19;87.33;100851.30;1731951;82;25676;-72
2022/01/29 04:16:45;;;;;;;22.58;10.32;;;;;;;-2.18;87.39;100854.75;1732020;82;26160;-72
2022/01/29 04:19:13;;;;;;;24.47;13.28;;;;;;;-2.19;87.47;100851.30;1731999;82;25674;-72
2022/01/29 04:21:45;;;;;;;13.78;9.38;;;;;;;-2.20;87.41;100845.69;1732010;82;26988;-72
2022/01/29 04:24:08;;;;;;;;;;;;;;;-2.20;87.57;100833.76;1733867;82;25673;-72
2022/01/29 04:26:35;;;;;;;17.67;9.20;;;;;;;-2.20;87.47;100839.06;1732030;82;25708;-72
2022/01/29 04:29:07;;;;;;;19.32;9.65;;;;;;;-2.21;87.52;100835.29;1731950;82;25681;-72
2022/01/29 04:31:59;;;;;;;29.30;10.75;;;;;;;-2.21;87.37;100829.50;1731807;82;25746;-72
2022/01/29 04:34:13;;;;;;;18.95;9.23;;;;;;;-2.22;87.48;100823.08;1729342;82;27897;-72
2022/01/29 04:36:40;;;;;;;14.63;8.78;;;;;;;-2.22;87.18;100817.78;1732049;82;25681;-72
2022/01/29 04:39:06;;;;;;;18.27;9.18;;;;;;;-2.22;87.27;100821.76;1731994;82;25588;-73
2022/01/29 04:41:32;;;;;;;18.30;9.73;;;;;;;-2.24;87.13;100824.61;1732075;82;25613;-72
2022/01/29 04:43:59;;;;;;;18.10;8.33;;;;;;;-2.24;87.25;100823.29;1732195;82;26166;-72
2022/01/29 04:46:25;;;;;;;14.28;8.50;;;;;;;-2.23;87.45;100816.98;1732043;82;27453;-72
2022/01/29 04:48:53;;;;;;;21.27;12.95;;;;;;;-2.25;87.40;100811.05;1732045;82;25448;-72
2022/01/29 04:51:20;;;;;;;14.10;9.08;;;;;;;-2.25;87.47;100815.03;1732001;82;25397;-72
2022/01/29 04:53:48;;;;;;;16.67;9.40;;;;;;;-2.24;87.38;100810.56;1732024;82;25712;-72
2022/01/29 04:56:15;;;;;;;22.00;7.90;;;;;;;-2.26;87.59;100810.25;1731983;82;25617;-72
2022/01/29 04:58:41;;;;;;;16.07;7.87;;;;;;;-2.26;87.65;100803.63;1731982;82;27893;-72
2022/01/29 05:01:08;;;;;;;19.67;10.10;;;;;;;-2.26;87.68;100808.92;1731941;82;25687;-72
2022/01/29 05:03:34;;;;;;;15.65;7.67;;;;;;;-2.27;87.52;100801.98;1731785;82;25525;-72
2022/01/29 05:06:01;;;;;;;12.93;6.65;;;;;;;-2.26;87.68;100810.77;1731854;82;25619;-72
2022/01/29 05:08:27;;;;;;;19.00;7.75;;;;;;;-2.26;87.61;100810.77;1731847;82;25475;-73
2022/01/29 05:10:54;;;;;;;14.98;7.37;;;;;;;-2.26;87.70;100802.81;1704762;82;27437;-72
2022/01/29 05:13:26;;;;;;;15.95;7.42;;;;;;;-2.26;87.63;100805.47;1731703;82;25648;-72
2022/01/29 05:26:57;;;;;;;20.23;7.33;;;;;;;-2.28;87.59;100793.75;1731779;82;25627;-72
2022/01/29 05:29:26;;;;;;;14.95;6.90;;;;;;;-2.29;87.69;100789.47;1731649;82;25664;-72
2022/01/29 05:31:52;;;;;;;13.93;6.92;;;;;;;-2.29;87.73;100782.03;1731799;82;25625;-72
2022/01/29 05:34:19;;;;;;;11.08;6.62;;;;;;;-2.30;87.71;100785.70;1731798;82;25584;-72
2022/01/29 05:36:46;;;;;;;13.08;6.53;;;;;;;-2.31;87.88;100770.84;1731838;82;27300;-72
2022/01/29 05:39:13;;;;;;;13.08;7.00;;;;;;;-2.32;87.92;100776.63;1731733;82;25621;-71
2022/01/29 05:41:39;;;;;;;15.78;6.83;;;;;;;-2.33;88.11;100772.89;1731799;82;25675;-71
2022/01/29 05:44:06;;;;;;;15.65;6.35;;;;;;;-2.35;88.26;100773.10;1731683;82;25852;-71
2022/01/29 05:46:33;;;;;;;15.08;6.92;;;;;;;-2.33;88.32;100770.25;1731865;82;25630;-71
2022/01/29 05:48:59;;;;;;;13.48;6.20;;;;;;;-2.33;88.35;100776.34;1731805;82;27372;-71
2022/01/29 05:51:30;;;;;;;11.05;6.30;;;;;;;-2.33;88.43;100778.20;1731810;82;25673;-72
2022/01/29 05:53:59;;;;;;;14.18;6.33;;;;;;;-2.33;88.34;100777.67;1731829;82;25453;-72
2022/01/29 05:56:26;;;;;;;13.35;6.03;;;;;;;-2.34;88.47;100776.03;1731805;82;25617;-72
2022/01/29 05:58:53;;;;;;;11.43;5.65;;;;;;;-2.34;88.35;100781.34;1731819;82;26360;-70
2022/01/29 06:01:20;;;;;;;16.75;6.55;;;;;;;-2.34;88.43;100785.31;1731849;82;27351;-71
2022/01/29 06:03:47;;;;;;;16.27;7.00;;;;;;;-2.34;88.37;100783.18;1731768;82;25713;-71
2022/01/29 06:06:14;;;;;;;15.23;6.22;;;;;;;-2.36;88.28;100774.12;1731800;82;25617;-71
2022/01/29 06:08:42;;;;;;;16.07;6.65;;;;;;;-2.37;88.14;100769.83;1731746;82;26168;-71
2022/01/29 06:11:11;;;;;;;12.75;6.00;;;;;;;-2.40;88.35;100775.58;1731837;82;25768;-71
2022/01/29 06:13:37;;;;;;;13.80;5.55;;;;;;;-2.41;88.39;100769.96;1720991;82;27313;-73
2022/01/29 06:16:05;;;;;;;12.58;6.45;;;;;;;-2.42;88.52;100776.27;1718700;83;25661;-73
2022/01/29 06:18:32;;;;;;;11.95;6.05;;;;;;;-2.43;88.57;100769.37;1718845;83;25414;-72
2022/01/29 06:21:04;;;;;;;14.03;5.90;;;;;;;-2.43;88.59;100777.31;1718733;83;25756;-72
2022/01/29 06:23:32;;;;;;;11.70;5.85;;;;;;;-2.44;88.60;100772.50;1718398;83;25698;-72
2022/01/29 06:26:03;;;;;;;17.05;5.78;;;;;;;-2.45;88.73;100774.88;1718910;83;27387;-72
2022/01/29 06:28:30;;;;;;;16.37;5.72;;;;;;;-2.43;88.82;100770.69;1718744;83;25641;-72
2022/01/29 06:30:57;;;;;;;12.30;5.87;;;;;;;-2.45;88.83;100764.27;1718816;83;25560;-72
2022/01/29 06:33:23;;;;;;;15.05;6.45;;;;;;;-2.44;89.00;100767.20;1718966;83;25706;-73
2022/01/29 06:35:50;;;;;;;11.85;6.28;;;;;;;-2.44;89.08;100761.11;1718988;83;25643;-71
2022/01/29 06:38:16;;;;;;;17.95;7.80;;;;;;;-2.42;89.03;100768.84;1718867;83;27448;-73
2022/01/29 06:40:44;;;;;;;15.98;6.87;;;;;;;-2.41;89.15;100770.48;1718843;83;25443;-72
2022/01/29 06:43:11;;;;;;;14.47;6.83;;;;;;;-2.39;89.25;100769.75;1718880;83;25614;-72
2022/01/29 06:45:42;;;;;;;16.77;7.33;;;;;;;-2.39;89.34;100772.41;1718912;83;25685;-71
2022/01/29 06:48:09;;;;;;;13.78;6.65;;;;;;;-2.39;89.33;100770.55;1718911;83;25560;-72
2022/01/29 06:50:36;;;;;;;11.95;6.33;;;;;;;-2.37;89.32;100770.34;1719585;83;27301;-71
2022/01/29 06:53:05;;;;;;;15.32;6.80;;;;;;;-2.35;89.32;100777.56;1721327;83;25298;-71
2022/01/29 06:55:31;;;;;;;17.27;8.30;;;;;;;-2.33;89.30;100779.52;1721551;83;25219;-72
2022/01/29 06:57:57;;;;;;;13.38;6.78;;;;;;;-2.32;89.29;100777.95;1721215;83;25746;-71
2022/01/29 07:00:25;;;;;;;16.55;7.83;;;;;;;-2.30;89.29;100776.42;1721333;83;25565;-71
2022/01/29 07:02:51;;;;;;;18.55;7.50;;;;;;;-2.26;89.41;100770.50;1721398;83;28144;-72
2022/01/29 07:05:18;;;;;;;16.87;7.50;;;;;;;-2.23;89.50;100777.22;1720647;83;25285;-72
2022/01/29 07:07:44;;;;;;;18.87;7.30;;;;;;;-2.21;89.48;100769.03;1720481;83;25422;-71
2022/01/29 07:10:11;;;;;;;16.25;7.05;;;;;;;-2.19;89.55;100765.16;1720020;83;25666;-72
2022/01/29 07:12:38;;;;;;;16.57;7.25;;;;;;;-2.15;89.68;100761.57;1723804;82;25271;-72
2022/01/29 07:15:10;;;;;;;19.12;8.48;;;;;;;-2.13;89.62;100755.53;1733527;82;27668;-72
2022/01/29 07:17:38;;;;;;;16.57;7.03;;;;;;;-2.08;89.79;100751.73;1733389;82;25246;-72
2022/01/29 07:20:06;;;;;;;14.68;7.65;;;;;;;-2.01;89.98;100745.89;1733255;82;25595;-72
2022/01/29 07:22:33;;;;;;;16.07;7.07;;;;;;;-1.93;89.91;100739.50;1732988;82;25614;-72
2022/01/29 07:24:59;;;;;;;16.10;7.45;;;;;;;-1.84;90.24;100731.57;1733067;82;25580;-73
2022/01/29 07:27:26;;;;;;;16.97;8.03;;;;;;;-1.71;90.39;100729.34;1733056;82;27346;-73
2022/01/29 07:29:52;;;;;;;14.75;7.28;;;;;;;-1.58;90.66;100729.77;1733590;82;25744;-73
2022/01/29 07:32:18;;;;;;;14.85;7.25;;;;;;;-1.46;90.42;100720.55;1733476;82;25736;-73
2022/01/29 07:34:45;;;;;;;17.75;7.22;;;;;;;-1.34;90.32;100720.14;1732729;82;25770;-73
2022/01/29 07:37:12;;;;;;;13.60;6.25;;;;;;;-1.23;90.01;100710.63;1733146;82;25289;-73
2022/01/29 07:39:38;;;;;;;17.35;6.97;;;;;;;-1.11;89.68;100714.70;1733368;82;27459;-72
2022/01/29 07:42:05;;;;;;;20.43;10.13;;;;;;;-1.02;89.56;100708.05;1739768;81;25329;-72
2022/01/29 07:44:32;;;;;;;18.98;7.42;;;;;;;-0.87;89.93;100706.34;1764673;81;25765;-71
2022/01/29 07:46:59;;;;;;;14.58;6.72;;;;;;;-0.80;89.15;100705.25;1711970;83;25604;-72
2022/01/29 07:49:25;;;;;;;14.58;6.75;;;;;;;-0.76;88.41;100698.97;1763754;81;25606;-73
2022/01/29 07:51:52;;;;;;;13.15;6.08;;;;;;;-0.73;88.34;100690.56;1764133;81;27389;-72
2022/01/29 07:54:18;;;;;;;16.07;7.05;;;;;;;-0.62;88.52;100687.66;1712342;83;25521;-73
2022/01/29 07:56:44;;;;;;;15.00;7.30;;;;;;;-0.55;88.16;100686.23;1702960;83;25303;-72
2022/01/29 07:59:11;;;;;;;14.38;6.53;;;;;;;-0.50;87.94;100684.52;1742960;82;25648;-73
2022/01/29 08:01:38;;;;;;;19.15;7.65;;;;;;;-0.43;88.16;100673.27;1682477;84;25343;-73
2022/01/29 08:04:04;;;;;;;14.70;6.85;;;;;;;-0.33;88.34;100663.95;1734422;82;28146;-73
2022/01/29 08:06:31;;;;;;;14.70;7.03;;;;;;;-0.23;88.28;100664.20;1734477;82;25216;-73
2022/01/29 08:08:58;;;;;;;16.27;7.40;;;;;;;-0.19;87.33;100666.69;1734277;82;25268;-72
2022/01/29 08:11:25;;;;;;;15.18;6.72;;;;;;;-0.10;87.37;100661.84;1733855;82;25683;-73
2022/01/29 08:13:52;;;;;;;14.05;7.25;;;;;;;-0.02;86.94;100667.66;1733963;82;25489;-72
2022/01/29 08:16:18;;;;;;;12.82;7.65;;;;;;;0.17;87.48;100663.55;1683366;85;27303;-72
2022/01/29 08:18:46;;;;;;;19.05;6.70;;;;;;;0.35;86.60;100662.64;1732756;82;25440;-73
2022/01/29 08:21:15;;;;;;;21.25;8.53;;;;;;;0.61;87.36;100659.20;1682862;85;25629;-73
2022/01/29 08:23:43;;;;;;;16.07;7.47;;;;;;;0.90;86.40;100658.75;1735890;82;25623;-73
2022/01/29 08:26:10;;;;;;;14.23;6.47;;;;;;;1.17;85.64;100644.36;1735691;82;25290;-73
2022/01/29 08:28:36;;;;;;;18.23;8.15;;;;;;;1.46;85.52;100645.19;1710254;82;27440;-74
2022/01/29 08:31:03;;;;;;;15.85;6.90;;;;;;;1.79;84.37;100645.47;1734970;82;25736;-74
2022/01/29 08:33:30;;;;;;;13.83;6.92;;;;;;;2.12;85.36;100647.84;1735185;82;26187;-74
2022/01/29 08:35:58;;;;;;;17.62;7.15;;;;;;;2.50;84.47;100639.03;1735122;82;26187;-75
2022/01/29 08:38:26;;;;;;;13.68;6.72;;;;;;;2.92;84.01;100635.03;1735584;82;25275;-74
2022/01/29 08:40:54;;;;;;;21.75;7.33;;;;;;;3.20;82.54;100633.20;1735249;82;27927;-73
2022/01/29 08:43:26;;;;;;;18.07;6.67;;;;;;;3.52;80.77;100630.58;1736410;82;25537;-73
2022/01/29 08:45:53;;;;;;;17.20;7.97;;;;;;;3.65;79.46;100622.14;1736100;82;25747;-73
2022/01/29 08:48:20;;;;;;;18.00;9.70;;;;;;;3.79;78.38;100611.81;1734952;82;25711;-74
2022/01/29 08:50:46;;;;;;;21.70;7.58;;;;;;;4.09;78.47;100614.45;1734955;82;25476;-74
2022/01/29 08:53:15;;;;;;;19.67;7.85;;;;;;;4.07;74.45;100628.09;1735090;82;27884;-75
2022/01/29 08:55:43;;;;;;;21.07;7.58;;;;;;;4.03;75.85;100619.48;1722233;82;25466;-74
2022/01/29 08:58:10;;;;;;;22.95;7.75;;;;;;;4.23;77.57;100613.47;1731827;82;25576;-76
2022/01/29 09:00:41;;;;;;;19.80;7.97;;;;;;;4.61;77.78;100615.00;1732128;82;26388;-76
2022/01/29 09:03:08;;;;;;;22.20;7.90;;;;;;;4.92;76.59;100617.83;1682184;85;25432;-76
2022/01/29 09:05:34;;;;;;;15.20;6.40;;;;;;;5.29;77.33;100605.31;1735049;82;27370;-75
2022/01/29 09:08:03;;;;;;;20.20;6.95;;;;;;;5.61;74.43;100609.10;1734909;82;25616;-74
2022/01/29 09:10:31;;;;;;;17.73;7.25;;;;;;;5.90;75.03;100609.91;1722213;82;25686;-74
2022/01/29 09:12:57;;;;;;;24.95;7.85;;;;;;;6.15;73.69;100623.34;1713126;82;25675;-75
2022/01/29 09:15:24;;;;;;;16.32;6.83;;;;;;;6.47;73.40;100617.34;1695501;84;25720;-75
2022/01/29 09:17:51;;;;;;;21.00;7.85;;;;;;;6.73;75.00;100605.98;1683155;85;27385;-73
2022/01/29 09:20:17;;;;;;;19.07;7.00;;;;;;;7.35;73.97;100602.41;1681947;85;25676;-75
2022/01/29 09:22:44;;;;;;;19.65;7.80;;;;;;;7.28;71.96;100597.89;1704322;84;25660;-75
2022/01/29 09:25:10;;;;;;;17.07;7.03;;;;;;;7.24;71.41;100598.98;1660812;85;25628;-76
2022/01/29 09:27:37;;;;;;;20.30;8.25;;;;;;;7.46;71.07;100593.74;1708555;83;25686;-76
2022/01/29 09:30:06;;;;;;;15.83;8.18;;;;;;;7.79;70.31;100585.38;1702198;83;27908;-76
2022/01/29 09:32:33;;;;;;;19.23;7.72;;;;;;;8.06;70.27;100587.31;1703987;84;33267;-77
2022/01/29 09:35:00;;;;;;;24.75;9.00;;;;;;;8.65;67.32;100583.98;1668454;83;25875;-77
2022/01/29 09:37:26;;;;;;;22.55;8.38;;;;;;;9.38;68.63;100575.16;1695100;83;25748;-74
2022/01/29 09:39:53;;;;;;;17.50;8.25;;;;;;;10.34;66.33;100567.84;1653748;86;25678;-75
2022/01/29 09:42:20;;;;;;;17.05;7.25;;;;;;;10.43;64.58;100575.49;1653731;86;28147;-73
2022/01/29 09:44:49;;;;;;;20.57;7.90;;;;;;;9.87;59.87;100573.81;1653645;86;25581;-72
2022/01/29 09:47:18;;;;;;;23.40;8.48;;;;;;;9.16;61.42;100577.92;1653783;86;25662;-76
2022/01/29 09:49:46;;;;;;;19.15;8.18;;;;;;;8.66;62.76;100564.02;1656315;83;25711;-76
2022/01/29 09:52:12;;;;;;;21.87;8.60;;;;;;;8.06;62.04;100571.94;1690843;84;25728;-75
2022/01/29 09:54:41;;;;;;;19.65;8.73;;;;;;;7.48;62.74;100539.08;1674326;85;27999;-76
2022/01/29 09:57:08;;;;;;;20.32;7.90;;;;;;;7.13;62.80;100532.08;1673991;85;25716;-72
2022/01/29 09:59:34;;;;;;;22.05;8.55;;;;;;;6.72;63.85;100533.95;1673923;85;25608;-72
2022/01/29 10:02:00;;;;;;;26.48;9.05;;;;;;;6.54;65.03;100524.61;1673896;85;25717;-73
2022/01/29 10:04:29;;;;;;;27.52;10.03;;;;;;;6.59;66.40;100524.31;1673969;85;25611;-72
2022/01/29 10:07:17;;;;;;;24.30;8.78;;;;;;;6.48;66.67;100516.30;1696559;83;27429;-75
2022/01/29 10:09:44;;;;;;;28.05;9.28;;;;;;;6.49;67.24;100512.55;1668166;85;25674;-76
2022/01/29 10:12:33;;;;;;;18.57;8.83;;;;;;;6.44;66.90;100504.51;1697200;84;25808;-75
2022/01/29 10:15:07;;;;;;;20.27;7.72;;;;;;;6.77;67.82;100497.35;1724836;82;26283;-75
2022/01/29 10:17:47;;;;;;;23.45;8.10;;;;;;;7.06;68.52;100485.31;1731650;82;25433;-74
2022/01/29 10:20:27;;;;;;;20.32;7.83;;;;;;;7.13;65.22;100494.41;1734107;82;27944;-74
2022/01/29 10:22:58;;;;;;;19.80;7.62;;;;;;;6.72;65.65;100473.46;1721297;81;25711;-76
2022/01/29 10:25:28;;;;;;;20.08;7.17;;;;;;;6.43;64.84;100463.92;1731374;82;25506;-75
2022/01/29 10:28:12;;;;;;;26.30;8.80;;;;;;;5.96;64.36;100461.98;1731258;81;25696;-75
2022/01/29 10:31:01;;;;;;;21.62;7.37;;;;;;;5.55;65.10;100462.06;1728313;81;25733;-75
2022/01/29 10:33:31;;;;;;;19.92;7.42;;;;;;;5.16;65.94;100451.90;1738489;82;27350;-74
2022/01/29 10:36:07;;;;;;;19.25;7.92;;;;;;;4.98;67.65;100443.84;1733829;82;25722;-75
2022/01/29 10:38:50;;;;;;;27.07;9.40;;;;;;;5.06;68.54;100434.48;1731709;82;25623;-74
2022/01/29 10:41:31;;;;;;;25.30;7.62;;;;;;;5.14;68.72;100425.07;1730053;82;25615;-74
2022/01/29 10:44:21;;;;;;;24.82;7.53;;;;;;;5.05;68.24;100420.24;1706826;82;25774;-75
2022/01/29 10:46:54;;;;;;;27.10;8.53;;;;;;;5.03;68.94;100417.58;1710762;82;27360;-74
2022/01/29 10:49:30;;;;;;;24.95;7.95;;;;;;;4.99;69.11;100411.16;1730785;82;25694;-74
2022/01/29 10:52:10;;;;;;;23.38;7.85;;;;;;;5.37;71.18;100403.60;1731632;82;25651;-75
2022/01/29 10:54:39;;;;;;;18.60;6.67;;;;;;;5.77;69.77;100399.19;1708321;82;26290;-74
2022/01/29 10:57:17;;;;;;;23.77;8.48;;;;;;;5.61;68.04;100391.19;1731852;82;25467;-74
2022/01/29 10:59:53;;;;;;;24.85;7.80;;;;;;;5.33;68.17;100381.88;1732114;82;27081;-75
2022/01/29 11:02:25;;;;;;;20.75;8.15;;;;;;;5.19;68.36;100371.44;1729208;82;25771;-75
2022/01/29 11:04:51;;;;;;;26.65;7.60;;;;;;;5.05;68.47;100359.13;1727348;81;25645;-73
2022/01/29 11:07:19;;;;;;;29.98;7.75;;;;;;;4.96;68.94;100360.21;1721521;82;26355;-75
2022/01/29 11:09:51;;;;;;;27.87;7.78;;;;;;;4.81;68.58;100358.33;1736082;82;25639;-73
2022/01/29 11:12:25;;;;;;;26.17;7.72;;;;;;;4.62;69.13;100351.38;1731659;82;27336;-75
2022/01/29 11:14:56;;;;;;;22.62;8.20;;;;;;;4.46;69.52;100339.85;1731915;82;25718;-76
2022/01/29 11:17:28;;;;;;;26.48;7.83;;;;;;;4.36;69.80;100340.36;1731929;82;25718;-75
2022/01/29 11:19:55;;;;;;;26.73;8.33;;;;;;;4.25;70.18;100327.50;1731670;82;25723;-75
2022/01/29 11:22:40;;;;;;;24.40;7.58;;;;;;;4.10;70.38;100319.72;1731889;82;25852;-75
2022/01/29 11:25:23;;;;;;;26.80;7.37;;;;;;;4.07;70.93;100312.22;1731927;82;27517;-74
2022/01/29 11:28:18;;;;;;;27.35;7.45;;;;;;;4.05;71.03;100308.18;1731685;82;25650;-74
2022/01/29 11:30:48;;;;;;;32.00;8.23;;;;;;;4.02;71.39;100304.17;1709471;82;25708;-74
2022/01/29 11:33:16;;;;;;;26.70;7.92;;;;;;;4.40;71.85;100293.24;1731626;82;25730;-74
2022/01/29 11:35:56;;;;;;;30.23;6.90;;;;;;;4.48;71.42;100296.73;1731750;82;25630;-74
2022/01/29 11:38:31;;;;;;;;;;;;;;;4.41;70.26;100293.49;1734583;82;28045;-74